createdAt,value
2022-08-23T00:00:22.908Z,1.67
2022-08-23T00:05:28.601Z,1.60
2022-08-23T00:10:33.554Z,1.53
2022-08-23T00:15:37.332Z,1.70
2022-08-23T00:20:40.755Z,2.07
2022-08-23T00:25:45.568Z,1.80
2022-08-23T00:30:50.709Z,1.90
2022-08-23T00:35:54.749Z,2.23
2022-08-23T00:40:59.611Z,2.20
2022-08-23T00:46:24.344Z,1.93
2022-08-23T00:51:29.722Z,1.97
2022-08-23T00:56:36.854Z,1.90
2022-08-23T01:01:41.688Z,1.67
2022-08-23T01:06:49.454Z,1.60
2022-08-23T01:11:57.434Z,1.93
2022-08-23T01:17:04.003Z,2.10
2022-08-23T01:22:10.601Z,1.90
2022-08-23T01:27:15.630Z,2.00
2022-08-23T01:32:19.022Z,1.93
2022-08-23T01:37:23.036Z,2.53
2022-08-23T01:42:28.976Z,2.17
2022-08-23T01:47:32.370Z,2.17
2022-08-23T01:52:36.163Z,2.40
2022-08-23T01:57:43.074Z,2.37
2022-08-23T02:02:49.988Z,2.10
2022-08-23T02:07:53.472Z,2.10
2022-08-23T02:12:59.277Z,2.23
2022-08-23T02:18:02.862Z,2.20
2022-08-23T02:23:06.290Z,2.10
2022-08-23T02:28:11.149Z,1.90
2022-08-23T02:33:15.562Z,2.40
2022-08-23T02:38:20.816Z,2.00
2022-08-23T02:43:25.861Z,2.43
2022-08-23T02:48:30.540Z,2.20
2022-08-23T02:53:39.211Z,2.50
2022-08-23T02:58:47.676Z,2.13
2022-08-23T03:03:58.922Z,2.17
2022-08-23T03:09:04.332Z,2.70
2022-08-23T03:14:09.584Z,2.67
2022-08-23T03:19:13.063Z,2.77
2022-08-23T03:24:17.030Z,2.60
2022-08-23T03:29:21.833Z,2.90
2022-08-23T03:34:45.712Z,2.77
2022-08-23T03:39:49.830Z,2.73
2022-08-23T03:45:02.223Z,2.50
2022-08-23T03:50:07.412Z,3.47
2022-08-23T03:55:12.656Z,2.47
2022-08-23T04:00:20.931Z,3.00
2022-08-23T04:05:27.086Z,2.50
2022-08-23T04:10:35.002Z,2.47
2022-08-23T04:15:39.851Z,2.87
2022-08-23T04:20:46.831Z,3.03
2022-08-23T04:25:50.556Z,3.23
2022-08-23T04:30:56.557Z,3.20
2022-08-23T04:36:00.879Z,2.97
2022-08-23T04:41:22.062Z,2.57
2022-08-23T04:46:27.237Z,2.70
2022-08-23T04:51:33.116Z,3.10
2022-08-23T04:56:36.566Z,3.00
2022-08-23T05:01:42.507Z,3.07
2022-08-23T05:06:46.425Z,3.03
2022-08-23T05:11:49.915Z,3.27
2022-08-23T05:16:55.431Z,3.30
2022-08-23T05:22:00.691Z,3.13
2022-08-23T05:27:23.843Z,2.87
2022-08-23T05:32:32.886Z,3.33
2022-08-23T05:37:37.148Z,3.20
2022-08-23T05:42:40.496Z,2.97
2022-08-23T05:47:46.406Z,2.87
2022-08-23T05:53:00.347Z,3.00
2022-08-23T05:58:04.099Z,3.23
2022-08-23T06:03:09.239Z,3.20
2022-08-23T06:08:12.771Z,2.90
2022-08-23T06:13:17.297Z,3.07
2022-08-23T06:18:22.268Z,3.10
2022-08-23T06:23:30.787Z,2.90
2022-08-23T06:28:34.295Z,3.20
2022-08-23T06:33:55.777Z,2.53
2022-08-23T06:39:11.584Z,2.37
2022-08-23T06:44:41.263Z,2.50
2022-08-23T06:50:03.301Z,2.27
2022-08-23T06:55:37.347Z,2.53
2022-08-23T07:00:57.211Z,2.30
2022-08-23T07:06:11.436Z,2.50
2022-08-23T07:11:15.326Z,2.73
2022-08-23T07:16:19.176Z,2.50
2022-08-23T07:21:24.311Z,2.60
2022-08-23T07:26:27.894Z,2.63
2022-08-23T07:31:34.722Z,2.20
2022-08-23T07:36:40.641Z,2.20
2022-08-23T07:41:44.476Z,2.40
2022-08-23T07:46:49.123Z,2.30
2022-08-23T07:51:53.968Z,2.20
2022-08-23T07:56:58.458Z,2.40
2022-08-23T08:02:20.612Z,2.35
2022-08-23T08:07:27.591Z,2.10
2022-08-23T08:12:36.721Z,2.42
2022-08-23T08:17:51.073Z,2.45
2022-08-23T08:22:59.097Z,2.40
2022-08-23T08:28:15.569Z,2.33
2022-08-23T08:33:19.826Z,2.38
2022-08-23T08:38:27.108Z,1.90
2022-08-23T08:43:35.892Z,2.08
2022-08-23T08:48:41.827Z,2.15
2022-08-23T08:53:48.437Z,3.05
2022-08-23T08:59:06.575Z,1.90
2022-08-23T09:04:11.737Z,2.10
2022-08-23T09:09:27.769Z,1.67
2022-08-23T09:14:49.093Z,1.83
2022-08-23T09:19:54.118Z,1.80
2022-08-23T09:24:59.740Z,1.95
2022-08-23T09:30:12.141Z,2.20
2022-08-23T09:35:18.397Z,2.13
2022-08-23T09:40:38.962Z,2.30
2022-08-23T09:45:56.789Z,1.90
2022-08-23T09:51:06.391Z,2.35
2022-08-23T09:56:15.468Z,1.77
2022-08-23T10:01:20.400Z,2.00
2022-08-23T10:06:37.002Z,1.88
2022-08-23T10:11:45.277Z,1.90
2022-08-23T10:16:54.523Z,2.00
2022-08-23T10:22:02.134Z,1.92
2022-08-23T10:27:33.628Z,2.10
2022-08-23T10:32:43.602Z,2.20
2022-08-23T10:37:51.598Z,1.90
2022-08-23T10:43:05.381Z,2.20
2022-08-23T10:48:17.116Z,1.90
2022-08-23T10:53:28.212Z,2.10
2022-08-23T10:58:35.508Z,2.17
2022-08-23T11:03:44.607Z,2.40
2022-08-23T11:08:48.609Z,1.92
2022-08-23T11:13:55.401Z,2.28
2022-08-23T11:18:59.037Z,2.20
2022-08-23T11:24:31.974Z,2.00
2022-08-23T11:29:39.317Z,2.58
2022-08-23T11:35:14.869Z,1.80
2022-08-23T11:40:34.904Z,2.10
2022-08-23T11:45:44.160Z,2.30
2022-08-23T11:51:03.806Z,2.38
2022-08-23T11:56:22.788Z,2.00
2022-08-23T12:01:32.298Z,1.92
2022-08-23T12:06:43.634Z,2.20
2022-08-23T12:12:10.524Z,2.00
2022-08-23T12:17:29.767Z,1.90
2022-08-23T12:22:53.953Z,2.30
2022-08-23T12:28:00.921Z,1.88
2022-08-23T12:33:07.413Z,2.78
2022-08-23T12:38:13.659Z,2.20
2022-08-23T12:43:22.870Z,1.92
2022-08-23T12:48:28.002Z,2.20
2022-08-23T12:53:32.754Z,2.22
2022-08-23T12:58:40.211Z,2.33
2022-08-23T13:03:45.878Z,2.33
2022-08-23T13:08:52.457Z,2.05
2022-08-23T13:13:57.680Z,2.15
2022-08-23T13:19:16.987Z,2.20
2022-08-23T13:24:37.629Z,2.10
2022-08-23T13:29:58.012Z,2.03
2022-08-23T13:35:20.074Z,2.40
2022-08-23T13:40:25.538Z,2.10
2022-08-23T13:45:31.063Z,2.30
2022-08-23T13:50:36.546Z,2.42
2022-08-23T13:55:42.163Z,2.53
2022-08-23T14:00:55.324Z,2.47
2022-08-23T14:05:59.229Z,2.42
2022-08-23T14:11:03.097Z,2.60
2022-08-23T14:21:32.955Z,2.35
2022-08-23T14:26:36.652Z,2.33
2022-08-23T14:31:41.545Z,2.17
2022-08-23T14:42:09.065Z,2.20
2022-08-23T14:47:14.101Z,2.20
2022-08-23T14:52:17.594Z,2.83
2022-08-23T14:57:21.122Z,2.10
2022-08-23T15:02:26.653Z,2.50
2022-08-23T15:07:30.054Z,2.30
2022-08-23T15:17:59.725Z,2.25
2022-08-23T15:23:04.298Z,2.25
2022-08-23T15:28:12.806Z,2.35
2022-08-23T15:33:18.658Z,2.15
2022-08-23T15:38:24.114Z,2.22
2022-08-23T15:43:34.459Z,2.38
2022-08-23T15:48:43.983Z,2.55
2022-08-23T15:53:47.940Z,2.38
2022-08-23T15:58:51.334Z,2.45
2022-08-23T16:03:56.130Z,2.80
2022-08-23T16:08:59.502Z,2.97
2022-08-23T16:14:02.908Z,2.30
2022-08-23T16:19:08.244Z,2.20
2022-08-23T16:24:12.640Z,2.20
2022-08-23T16:29:18.122Z,1.83
2022-08-23T16:34:22.871Z,2.03
2022-08-23T16:39:26.410Z,2.20
2022-08-23T16:44:29.892Z,2.05
2022-08-23T16:49:34.862Z,2.17
2022-08-23T16:54:38.318Z,2.13
2022-08-23T16:59:41.803Z,2.40
2022-08-23T17:04:52.130Z,2.53
2022-08-23T17:09:56.018Z,2.17
2022-08-23T17:14:59.536Z,2.30
2022-08-23T17:20:06.678Z,2.22
2022-08-23T17:25:10.868Z,2.65
2022-08-23T17:30:16.353Z,2.00
2022-08-23T17:35:22.740Z,2.08
2022-08-23T17:40:28.764Z,2.35
2022-08-23T17:45:34.576Z,2.40
2022-08-23T17:50:39.848Z,2.83
2022-08-23T17:56:16.245Z,2.17
2022-08-23T18:01:19.740Z,2.20
2022-08-23T18:06:24.607Z,2.17
2022-08-23T18:11:28.150Z,2.35
2022-08-23T18:16:35.227Z,2.40
2022-08-23T18:21:41.000Z,2.63
2022-08-23T18:27:02.527Z,2.10
2022-08-23T18:32:07.090Z,2.10
2022-08-23T18:37:11.837Z,1.85
2022-08-23T18:42:16.234Z,2.17
2022-08-23T18:47:19.661Z,2.30
2022-08-23T18:52:24.477Z,2.03
2022-08-23T18:57:27.877Z,2.17
2022-08-23T19:02:31.299Z,1.80
2022-08-23T19:07:36.494Z,1.80
2022-08-23T19:12:39.888Z,1.80
2022-08-23T19:17:55.035Z,1.50
2022-08-23T19:22:59.706Z,1.73
2022-08-23T19:28:03.337Z,1.70
2022-08-23T19:33:06.870Z,1.40
2022-08-23T19:38:13.264Z,1.67
2022-08-23T19:43:18.202Z,1.53
2022-08-23T19:48:21.553Z,1.67
2022-08-23T19:53:26.324Z,1.60
2022-08-23T19:58:30.419Z,1.50
2022-08-23T20:03:33.798Z,1.70
2022-08-23T20:08:38.657Z,1.63
2022-08-23T20:13:43.230Z,1.40
2022-08-23T20:18:46.699Z,1.67
2022-08-23T20:24:03.898Z,1.30
2022-08-23T20:29:08.254Z,1.50
2022-08-23T20:34:11.653Z,1.50
2022-08-23T20:39:21.872Z,1.37
2022-08-23T20:44:27.452Z,1.83
2022-08-23T20:49:32.679Z,1.40
2022-08-23T20:54:37.599Z,1.50
2022-08-23T20:59:44.380Z,1.83
2022-08-23T21:04:48.418Z,2.10
2022-08-23T21:09:53.177Z,1.40
2022-08-23T21:14:56.852Z,1.60
2022-08-23T21:20:00.260Z,1.90
2022-08-23T21:25:05.200Z,1.70
2022-08-23T21:30:09.740Z,1.40
2022-08-23T21:35:13.936Z,1.60
2022-08-23T21:40:18.743Z,1.80
2022-08-23T21:45:22.274Z,1.57
2022-08-23T21:50:26.780Z,2.00
2022-08-23T21:55:36.052Z,1.80
2022-08-23T22:00:41.340Z,1.77
2022-08-23T22:05:45.397Z,1.90
2022-08-23T22:10:57.384Z,1.37
2022-08-23T22:16:01.850Z,1.90
2022-08-23T22:21:05.571Z,2.10
2022-08-23T22:26:10.500Z,1.93
2022-08-23T22:31:15.115Z,1.47
2022-08-23T22:36:21.055Z,1.53
2022-08-23T22:41:27.355Z,1.40
2022-08-23T22:46:32.035Z,1.67
2022-08-23T22:51:37.400Z,1.13
2022-08-23T22:56:43.054Z,1.73
2022-08-23T23:01:48.365Z,1.57
2022-08-23T23:06:52.551Z,1.10
2022-08-23T23:11:57.725Z,1.60
2022-08-23T23:17:01.199Z,1.70
2022-08-23T23:22:05.289Z,1.63
2022-08-23T23:27:10.123Z,1.47
2022-08-23T23:32:13.521Z,1.30
2022-08-23T23:37:17.275Z,1.70
2022-08-23T23:42:22.059Z,1.70
2022-08-23T23:47:25.452Z,1.90
2022-08-23T23:52:28.800Z,1.70
2022-08-23T23:57:33.734Z,1.43
